Aeroporto :
LOGIN :

Iscrizione | Disclaimer

   EN    FR    IT 

 










Sommario :    VFR   VFR Marginale   IFR   IFR Intensivo   IFR Molto Intensivo
Visibilità : 
Base nubi : 
>= 8 km
>= 3000ft
5 / 8 km
1000 / 3000 ft
1500m / 5 km
500 / 1000 ft
800 / 1500m
200 / 500 ft
< 800m
< 200 ft
Simboli :   Temporali  Nebbia  Neve Forte  Precipitazioni Forti  Vento > 20 kt
SIGMETs :   Varie  Temporali  Ghiacco  Turbolenza  Onda orograficha  Ceneri Vulcaniche






- Altitudine del aeroporto : 885 ft
- Codice IATA : BAS


LFSB - Bale-Mulhouse

ULTIMO METAR :
  • 200400Z AUTO VRB01KT 9999 -RADZ SCT029 BKN066 BKN076 13/12 Q1017 TEMPO 4000 BR BKN013

METARs OBSOLETI :
  • 200330Z AUTO 15004KT 9999 FEW056 BKN072 OVC092 13/12 Q1017 TEMPO 4000 BR BKN013
  • 200300Z AUTO 15003KT 9999 BKN037 OVC056 13/12 Q1017 TEMPO 4000 BR BKN013
  • 200230Z AUTO 16003KT 9999 BKN037 OVC058 13/12 Q1017 TEMPO 4000 BR BKN013
  • 200200Z AUTO 17003KT 9999 SCT037 OVC058 13/12 Q1017 TEMPO 4000 BR BKN013
  • 200130Z AUTO VRB03KT 9999 BKN038 OVC052 13/12 Q1018 TEMPO 4000 BR BKN013

TAF TAF LFSB
Valido dal 20 a 00 ore il 21 a 00 ore UTC


192300Z 2000/2024 VRB03KT 9999 FEW015 BKN040
PROB40
TEMPO 2000/2010 -RA BKN013
PROB30
TEMPO 2000/2005 4000 BR NSC
BECMG 2010/2012 36006KT
TEMPO 2015/2018 -SHRA FEW020TCU
BECMG 2022/2024 BKN006
Met : +33 3 89 90 31 11



MetMap, La meteo Aeronautica in un colpo d'occhio ! - Copyright ORBIFLY Dicembre 2007 - Disclaimer

ORBIFLY MET'MAP TEAM :

Programmazione e sviluppo : Alexandra Zaïnal
Concezione : Baudouin d'Aumeries
Aiuto per la programmazione : Marc-Olivier Méhu
Supporto tecnico e logistico : Manuel Goepfert
Aiuto per la traduzione : Arnaldo La Scala

Contatto : metmap@orbifly.com




FONTI E CREDITI :

   NOAA